sensor_id;sensor_type;location;lat;lon;timestamp;P1;P2;P0
57373;PMS7003;43964;53.890;25.340;2023-03-13T00:03:46;0;0;0
57373;PMS7003;43964;53.890;25.340;2023-03-13T00:08:34;0;0;0
57373;PMS7003;43964;53.890;25.340;2023-03-13T00:13:46;0.4;0;0
57373;PMS7003;43964;53.890;25.340;2023-03-13T00:19:16;0;0;0
57373;PMS7003;43964;53.890;25.340;2023-03-13T00:24:16;0;0;0
57373;PMS7003;43964;53.890;25.340;2023-03-13T00:28:54;0;0;0
57373;PMS7003;43964;53.890;25.340;2023-03-13T00:33:56;0;0;0
57373;PMS7003;43964;53.890;25.340;2023-03-13T00:38:46;0.2;0;0
57373;PMS7003;43964;53.890;25.340;2023-03-13T00:44:04;0;0;0
57373;PMS7003;43964;53.890;25.340;2023-03-13T00:49:06;0;0;0
57373;PMS7003;43964;53.890;25.340;2023-03-13T00:53:34;0.2;0;0
57373;PMS7003;43964;53.890;25.340;2023-03-13T00:58:54;0.3;0.3;0
57373;PMS7003;43964;53.890;25.340;2023-03-13T01:03:45;0.4;0.2;0
57373;PMS7003;43964;53.890;25.340;2023-03-13T01:09:16;0.8;0.6;0.4
57373;PMS7003;43964;53.890;25.340;2023-03-13T01:14:17;1.4;0.8;0
57373;PMS7003;43964;53.890;25.340;2023-03-13T01:19:07;1.4;0.6;0
57373;PMS7003;43964;53.890;25.340;2023-03-13T01:23:54;0.6;0.2;0
57373;PMS7003;43964;53.890;25.340;2023-03-13T01:28:46;1.2;0.8;0
57373;PMS7003;43964;53.890;25.340;2023-03-13T01:34:06;0;0;0
57373;PMS7003;43964;53.890;25.340;2023-03-13T01:39:16;0.4;0.4;0.2
57373;PMS7003;43964;53.890;25.340;2023-03-13T01:43:46;0.2;0;0
57373;PMS7003;43964;53.890;25.340;2023-03-13T01:48:45;0;0;0
57373;PMS7003;43964;53.890;25.340;2023-03-13T01:53:34;0.3;0;0
57373;PMS7003;43964;53.890;25.340;2023-03-13T01:58:52;0;0;0
57373;PMS7003;43964;53.890;25.340;2023-03-13T02:04:16;0;0;0
57373;PMS7003;43964;53.890;25.340;2023-03-13T02:09:06;0.6;0;0
57373;PMS7003;43964;53.890;25.340;2023-03-13T02:13:52;0;0;0
57373;PMS7003;43964;53.890;25.340;2023-03-13T02:18:34;0.4;0.2;0
57373;PMS7003;43964;53.890;25.340;2023-03-13T02:24:08;0;0;0
57373;PMS7003;43964;53.890;25.340;2023-03-13T02:29:16;0.2;0;0
57373;PMS7003;43964;53.890;25.340;2023-03-13T02:33:37;0;0;0
57373;PMS7003;43964;53.890;25.340;2023-03-13T02:38:36;0.2;0.2;0
57373;PMS7003;43964;53.890;25.340;2023-03-13T02:43:56;0;0;0
57373;PMS7003;43964;53.890;25.340;2023-03-13T02:49:12;0;0;0
57373;PMS7003;43964;53.890;25.340;2023-03-13T02:54:17;0;0;0
57373;PMS7003;43964;53.890;25.340;2023-03-13T02:59:04;0;0;0
57373;PMS7003;43964;53.890;25.340;2023-03-13T03:03:34;0;0;0
57373;PMS7003;43964;53.890;25.340;2023-03-13T03:08:44;0;0;0
57373;PMS7003;43964;53.890;25.340;2023-03-13T03:14:06;0.2;0;0
57373;PMS7003;43964;53.890;25.340;2023-03-13T03:19:16;0;0;0
57373;PMS7003;43964;53.890;25.340;2023-03-13T03:24:04;0;0;0
57373;PMS7003;43964;53.890;25.340;2023-03-13T03:28:34;0;0;0
57373;PMS7003;43964;53.890;25.340;2023-03-13T03:33:34;0;0;0
57373;PMS7003;43964;53.890;25.340;2023-03-13T03:39:06;0;0;0
57373;PMS7003;43964;53.890;25.340;2023-03-13T03:44:16;0.4;0.2;0
57373;PMS7003;43964;53.890;25.340;2023-03-13T03:49:06;0;0;0
57373;PMS7003;43964;53.890;25.340;2023-03-13T03:53:54;0;0;0
57373;PMS7003;43964;53.890;25.340;2023-03-13T03:58:58;0;0;0
57373;PMS7003;43964;53.890;25.340;2023-03-13T04:04:04;0;0;0
57373;PMS7003;43964;53.890;25.340;2023-03-13T04:09:16;0;0;0
57373;PMS7003;43964;53.890;25.340;2023-03-13T04:14:04;0;0;0
57373;PMS7003;43964;53.890;25.340;2023-03-13T04:18:54;0;0;0
57373;PMS7003;43964;53.890;25.340;2023-03-13T04:23:34;0;0;0
57373;PMS7003;43964;53.890;25.340;2023-03-13T04:29:06;0.6;0.2;0
57373;PMS7003;43964;53.890;25.340;2023-03-13T04:34:14;0;0;0
57373;PMS7003;43964;53.890;25.340;2023-03-13T04:39:10;0.4;0;0
57373;PMS7003;43964;53.890;25.340;2023-03-13T04:43:52;1;0.8;0.2
57373;PMS7003;43964;53.890;25.340;2023-03-13T04:48:34;0.8;0.6;0.2
57373;PMS7003;43964;53.890;25.340;2023-03-13T04:54:06;0;0;0
57373;PMS7003;43964;53.890;25.340;2023-03-13T04:58:54;0;0;0
57373;PMS7003;43964;53.890;25.340;2023-03-13T05:04:02;0.3;0;0
57373;PMS7003;43964;53.890;25.340;2023-03-13T05:08:52;0.4;0.2;0.2
57373;PMS7003;43964;53.890;25.340;2023-03-13T05:13:42;0.4;0;0
57373;PMS7003;43964;53.890;25.340;2023-03-13T05:18:52;0;0;0
57373;PMS7003;43964;53.890;25.340;2023-03-13T05:24:14;0.8;0.6;0
57373;PMS7003;43964;53.890;25.340;2023-03-13T05:29:06;0;0;0
57373;PMS7003;43964;53.890;25.340;2023-03-13T05:33:56;0.8;0.2;0
57373;PMS7003;43964;53.890;25.340;2023-03-13T05:38:34;0;0;0
57373;PMS7003;43964;53.890;25.340;2023-03-13T05:44:04;0.2;0;0
57373;PMS7003;43964;53.890;25.340;2023-03-13T05:49:18;0.2;0;0
57373;PMS7003;43964;53.890;25.340;2023-03-13T05:54:06;0;0;0
57373;PMS7003;43964;53.890;25.340;2023-03-13T05:58:42;0.3;0.3;0
57373;PMS7003;43964;53.890;25.340;2023-03-13T06:08:34;0;0;0
57373;PMS7003;43964;53.890;25.340;2023-03-13T06:14:16;1;1;0
57373;PMS7003;43964;53.890;25.340;2023-03-13T06:19:04;1;1;0
57373;PMS7003;43964;53.890;25.340;2023-03-13T06:23:53;0;0;0
57373;PMS7003;43964;53.890;25.340;2023-03-13T06:28:42;0.2;0.2;0
57373;PMS7003;43964;53.890;25.340;2023-03-13T06:33:52;0.4;0.2;0
57373;PMS7003;43964;53.890;25.340;2023-03-13T06:39:16;0.3;0;0
57373;PMS7003;43964;53.890;25.340;2023-03-13T06:44:04;0.4;0;0
57373;PMS7003;43964;53.890;25.340;2023-03-13T06:48:54;0;0;0
57373;PMS7003;43964;53.890;25.340;2023-03-13T06:53:44;0.2;0.2;0
57373;PMS7003;43964;53.890;25.340;2023-03-13T06:58:54;0.6;0.4;0
57373;PMS7003;43964;53.890;25.340;2023-03-13T07:04:14;0.2;0;0
57373;PMS7003;43964;53.890;25.340;2023-03-13T07:08:52;0;0;0
57373;PMS7003;43964;53.890;25.340;2023-03-13T07:13:34;0.2;0.2;0
57373;PMS7003;43964;53.890;25.340;2023-03-13T07:18:34;0.2;0.2;0
57373;PMS7003;43964;53.890;25.340;2023-03-13T07:23:52;0;0;0
57373;PMS7003;43964;53.890;25.340;2023-03-13T07:29:16;0.8;0;0
57373;PMS7003;43964;53.890;25.340;2023-03-13T07:34:14;0.8;0.4;0.2
57373;PMS7003;43964;53.890;25.340;2023-03-13T07:38:54;0.2;0.2;0
57373;PMS7003;43964;53.890;25.340;2023-03-13T07:43:34;0;0;0
57373;PMS7003;43964;53.890;25.340;2023-03-13T07:48:56;0.6;0;0
57373;PMS7003;43964;53.890;25.340;2023-03-13T07:54:16;0.8;0;0
57373;PMS7003;43964;53.890;25.340;2023-03-13T07:59:06;0.2;0;0
57373;PMS7003;43964;53.890;25.340;2023-03-13T08:03:56;0;0;0
57373;PMS7003;43964;53.890;25.340;2023-03-13T08:08:34;0.6;0.2;0
57373;PMS7003;43964;53.890;25.340;2023-03-13T08:13:54;0.6;0.2;0
57373;PMS7003;43964;53.890;25.340;2023-03-13T08:19:16;0.8;0.4;0
57373;PMS7003;43964;53.890;25.340;2023-03-13T08:24:07;0;0;0
57373;PMS7003;43964;53.890;25.340;2023-03-13T08:28:45;0.4;0;0
57373;PMS7003;43964;53.890;25.340;2023-03-13T08:33:45;0.5;0;0
57373;PMS7003;43964;53.890;25.340;2023-03-13T08:38:34;0.5;0;0
57373;PMS7003;43964;53.890;25.340;2023-03-13T08:44:06;0.5;0.5;0
57373;PMS7003;43964;53.890;25.340;2023-03-13T08:49:05;0.2;0.2;0.2
57373;PMS7003;43964;53.890;25.340;2023-03-13T08:53:54;0;0;0
57373;PMS7003;43964;53.890;25.340;2023-03-13T08:58:55;0.2;0;0
57373;PMS7003;43964;53.890;25.340;2023-03-13T09:04:14;0.2;0;0
57373;PMS7003;43964;53.890;25.340;2023-03-13T09:09:06;0.7;0.3;0
57373;PMS7003;43964;53.890;25.340;2023-03-13T09:13:50;0.4;0.2;0
57373;PMS7003;43964;53.890;25.340;2023-03-13T09:19:08;0.8;0.5;0
57373;PMS7003;43964;53.890;25.340;2023-03-13T09:23:42;0.2;0;0
57373;PMS7003;43964;53.890;25.340;2023-03-13T09:29:16;0.2;0;0
57373;PMS7003;43964;53.890;25.340;2023-03-13T09:33:47;0;0;0
57373;PMS7003;43964;53.890;25.340;2023-03-13T09:38:48;0.2;0;0
57373;PMS7003;43964;53.890;25.340;2023-03-13T09:44:06;0;0;0
57373;PMS7003;43964;53.890;25.340;2023-03-13T09:48:55;0.2;0;0
57373;PMS7003;43964;53.890;25.340;2023-03-13T09:54:18;0.2;0;0
57373;PMS7003;43964;53.890;25.340;2023-03-13T09:59:10;0;0;0
57373;PMS7003;43964;53.890;25.340;2023-03-13T10:03:53;0.5;0.3;0
57373;PMS7003;43964;53.890;25.340;2023-03-13T10:08:58;1;0.8;0.3
57373;PMS7003;43964;53.890;25.340;2023-03-13T10:13:35;1;0.2;0
57373;PMS7003;43964;53.890;25.340;2023-03-13T10:19:17;0.6;0.2;0
57373;PMS7003;43964;53.890;25.340;2023-03-13T10:24:11;0;0;0
57373;PMS7003;43964;53.890;25.340;2023-03-13T10:28:40;0.3;0.3;0
57373;PMS7003;43964;53.890;25.340;2023-03-13T10:34:09;0;0;0
57373;PMS7003;43964;53.890;25.340;2023-03-13T10:38:43;0.6;0.2;0
57373;PMS7003;43964;53.890;25.340;2023-03-13T10:44:19;0.3;0.3;0
57373;PMS7003;43964;53.890;25.340;2023-03-13T10:48:48;0.2;0;0
57373;PMS7003;43964;53.890;25.340;2023-03-13T10:53:35;2;0.8;0.2
57373;PMS7003;43964;53.890;25.340;2023-03-13T10:59:15;1.4;0.2;0
57373;PMS7003;43964;53.890;25.340;2023-03-13T11:03:47;0;0;0
57373;PMS7003;43964;53.890;25.340;2023-03-13T11:09:18;0.8;0.4;0.2
57373;PMS7003;43964;53.890;25.340;2023-03-13T11:14:12;0.2;0;0
57373;PMS7003;43964;53.890;25.340;2023-03-13T11:18:50;0.6;0.4;0
57373;PMS7003;43964;53.890;25.340;2023-03-13T11:24:12;0.2;0;0
57373;PMS7003;43964;53.890;25.340;2023-03-13T11:28:39;0.5;0.3;0
57373;PMS7003;43964;53.890;25.340;2023-03-13T11:34:18;0.8;0.6;0.2
57373;PMS7003;43964;53.890;25.340;2023-03-13T11:39:23;1.8;1;0.3
57373;PMS7003;43964;53.890;25.340;2023-03-13T11:43:53;0.5;0.5;0
57373;PMS7003;43964;53.890;25.340;2023-03-13T11:49:12;1.2;0.8;0.4
57373;PMS7003;43964;53.890;25.340;2023-03-13T11:53:55;1.2;0.8;0
57373;PMS7003;43964;53.890;25.340;2023-03-13T11:59:22;1;1;0.4
57373;PMS7003;43964;53.890;25.340;2023-03-13T12:04:10;2.4;1.6;0.8
57373;PMS7003;43964;53.890;25.340;2023-03-13T12:08:35;1.8;1.6;0.8
57373;PMS7003;43964;53.890;25.340;2023-03-13T12:14:17;1;1;0.4
57373;PMS7003;43964;53.890;25.340;2023-03-13T12:18:42;2.6;2.2;0.4
57373;PMS7003;43964;53.890;25.340;2023-03-13T12:24:18;2.3;1.5;0.8
57373;PMS7003;43964;53.890;25.340;2023-03-13T12:29:11;1;0.8;0.2
57373;PMS7003;43964;53.890;25.340;2023-03-13T12:33:52;2.6;2;1
57373;PMS7003;43964;53.890;25.340;2023-03-13T12:39:09;2.6;1.8;1
57373;PMS7003;43964;53.890;25.340;2023-03-13T12:43:42;3.3;2;1.7
57373;PMS7003;43964;53.890;25.340;2023-03-13T12:49:21;3.2;1.8;1
57373;PMS7003;43964;53.890;25.340;2023-03-13T12:54:17;3;2.4;1.6
57373;PMS7003;43964;53.890;25.340;2023-03-13T12:58:45;2;1.4;0.6
57373;PMS7003;43964;53.890;25.340;2023-03-13T13:04:11;1.6;1;0.4
57373;PMS7003;43964;53.890;25.340;2023-03-13T13:08:47;1.6;1.2;0.4
57373;PMS7003;43964;53.890;25.340;2023-03-13T13:19:41;4;2;0.8
57373;PMS7003;43964;53.890;25.340;2023-03-13T13:23:50;2.6;2.2;1.2
57373;PMS7003;43964;53.890;25.340;2023-03-13T13:29:54;2.8;2.4;1.4
57373;PMS7003;43964;53.890;25.340;2023-03-13T13:33:35;2.4;2.2;1.2
57373;PMS7003;43964;53.890;25.340;2023-03-13T13:39:20;2.2;1.8;1
57373;PMS7003;43964;53.890;25.340;2023-03-13T13:44:32;4.3;2.8;1.5
57373;PMS7003;43964;53.890;25.340;2023-03-13T13:48:34;2.4;2;1.4
57373;PMS7003;43964;53.890;25.340;2023-03-13T13:54:51;1.8;1.2;0.6
57373;PMS7003;43964;53.890;25.340;2023-03-13T13:58:34;2.2;2;0.6
57373;PMS7003;43964;53.890;25.340;2023-03-13T14:04:21;2.2;1.6;1.2
57373;PMS7003;43964;53.890;25.340;2023-03-13T14:09:13;2.4;2;1
57373;PMS7003;43964;53.890;25.340;2023-03-13T14:13:44;1.6;1;0.8
57373;PMS7003;43964;53.890;25.340;2023-03-13T14:19:20;2.2;1.4;0.6
57373;PMS7003;43964;53.890;25.340;2023-03-13T14:23:46;2.5;1.8;0.3
57373;PMS7003;43964;53.890;25.340;2023-03-13T14:29:18;1;0.6;0.2
57373;PMS7003;43964;53.890;25.340;2023-03-13T14:34:01;1;1;0.3
57373;PMS7003;43964;53.890;25.340;2023-03-13T14:38:53;2.7;2.3;1.7
57373;PMS7003;43964;53.890;25.340;2023-03-13T14:44:13;3.2;2.2;1
57373;PMS7003;43964;53.890;25.340;2023-03-13T14:49:04;3.2;2.2;1.2
57373;PMS7003;43964;53.890;25.340;2023-03-13T14:54:23;3.2;2;1.4
57373;PMS7003;43964;53.890;25.340;2023-03-13T14:59:14;2.4;1.8;1.2
57373;PMS7003;43964;53.890;25.340;2023-03-13T15:04:46;3.6;2.4;1.4
57373;PMS7003;43964;53.890;25.340;2023-03-13T15:09:13;3.3;2.5;0.8
57373;PMS7003;43964;53.890;25.340;2023-03-13T15:13:58;3;2.2;0.8
57373;PMS7003;43964;53.890;25.340;2023-03-13T15:19:16;2.4;1.4;0.4
57373;PMS7003;43964;53.890;25.340;2023-03-13T15:24:11;2.8;1.6;0.4
57373;PMS7003;43964;53.890;25.340;2023-03-13T15:28:34;2;1.2;0.2
57373;PMS7003;43964;53.890;25.340;2023-03-13T15:34:09;1.6;1.2;0.6
57373;PMS7003;43964;53.890;25.340;2023-03-13T15:38:34;2.2;1.4;0.2
57373;PMS7003;43964;53.890;25.340;2023-03-13T15:44:20;1.8;1.4;1
57373;PMS7003;43964;53.890;25.340;2023-03-13T15:49:00;1.8;1.6;1
57373;PMS7003;43964;53.890;25.340;2023-03-13T15:53:34;1.6;1.4;0.8
57373;PMS7003;43964;53.890;25.340;2023-03-13T15:59:18;1.8;1.4;1
57373;PMS7003;43964;53.890;25.340;2023-03-13T16:03:44;1;0.8;0.2
57373;PMS7003;43964;53.890;25.340;2023-03-13T16:09:20;1.3;1.3;0.8
57373;PMS7003;43964;53.890;25.340;2023-03-13T16:14:12;1.6;1.6;0.8
57373;PMS7003;43964;53.890;25.340;2023-03-13T16:18:52;1.8;1.4;0.8
57373;PMS7003;43964;53.890;25.340;2023-03-13T16:24:12;1.2;1.2;0.6
57373;PMS7003;43964;53.890;25.340;2023-03-13T16:28:46;2;1.6;0.6
57373;PMS7003;43964;53.890;25.340;2023-03-13T16:34:04;2.8;1.6;0.6
57373;PMS7003;43964;53.890;25.340;2023-03-13T16:39:10;1.8;1.4;0.6
57373;PMS7003;43964;53.890;25.340;2023-03-13T16:43:52;1.2;1.2;1.2
57373;PMS7003;43964;53.890;25.340;2023-03-13T16:49:10;1.8;1.4;0.6
57373;PMS7003;43964;53.890;25.340;2023-03-13T16:53:44;2.2;1.4;1
57373;PMS7003;43964;53.890;25.340;2023-03-13T16:58:59;1.8;1.5;0.5
57373;PMS7003;43964;53.890;25.340;2023-03-13T17:03:35;1.7;1.7;0.3
57373;PMS7003;43964;53.890;25.340;2023-03-13T17:08:34;1.3;0.5;0.3
57373;PMS7003;43964;53.890;25.340;2023-03-13T17:14:12;2.6;2;1
57373;PMS7003;43964;53.890;25.340;2023-03-13T17:18:45;1.8;1.8;1
57373;PMS7003;43964;53.890;25.340;2023-03-13T17:24:16;1.8;1.2;0.8
57373;PMS7003;43964;53.890;25.340;2023-03-13T17:29:11;1.6;1.4;0.8
57373;PMS7003;43964;53.890;25.340;2023-03-13T17:33:52;1.8;1.2;0.4
57373;PMS7003;43964;53.890;25.340;2023-03-13T17:39:13;1.4;0.6;0.2
57373;PMS7003;43964;53.890;25.340;2023-03-13T17:43:44;1.4;0.6;0.4
57373;PMS7003;43964;53.890;25.340;2023-03-13T17:49:06;1.6;1;0.2
57373;PMS7003;43964;53.890;25.340;2023-03-13T17:54:07;2;1.4;0.4
57373;PMS7003;43964;53.890;25.340;2023-03-13T17:58:55;1.2;1;0.6
57373;PMS7003;43964;53.890;25.340;2023-03-13T18:04:20;1.2;1;0.6
57373;PMS7003;43964;53.890;25.340;2023-03-13T18:08:44;2;2;0.5
57373;PMS7003;43964;53.890;25.340;2023-03-13T18:13:45;1;1;0.3
57373;PMS7003;43964;53.890;25.340;2023-03-13T18:19:14;1.5;0.5;0
57373;PMS7003;43964;53.890;25.340;2023-03-13T18:24:18;1.2;0.8;0.4
57373;PMS7003;43964;53.890;25.340;2023-03-13T18:29:21;0.8;0.4;0.2
57373;PMS7003;43964;53.890;25.340;2023-03-13T18:34:04;1;1;0.3
57373;PMS7003;43964;53.890;25.340;2023-03-13T18:39:13;1.4;0.6;0.2
57373;PMS7003;43964;53.890;25.340;2023-03-13T18:43:56;1;0.8;0
57373;PMS7003;43964;53.890;25.340;2023-03-13T18:48:55;1;1;0.4
57373;PMS7003;43964;53.890;25.340;2023-03-13T18:53:34;1;0.8;0.4
57373;PMS7003;43964;53.890;25.340;2023-03-13T18:59:21;1.2;1.2;0.2
57373;PMS7003;43964;53.890;25.340;2023-03-13T19:04:20;1.4;0.8;0.4
57373;PMS7003;43964;53.890;25.340;2023-03-13T19:08:45;1.4;1;0
57373;PMS7003;43964;53.890;25.340;2023-03-13T19:14:09;1.6;1.2;0.2
57373;PMS7003;43964;53.890;25.340;2023-03-13T19:18:58;1.2;1;0.6
57373;PMS7003;43964;53.890;25.340;2023-03-13T19:24:18;0.8;0.8;0.2
57373;PMS7003;43964;53.890;25.340;2023-03-13T19:28:50;0.8;0.8;0.5
57373;PMS7003;43964;53.890;25.340;2023-03-13T19:34:18;1.4;1;0.6
57373;PMS7003;43964;53.890;25.340;2023-03-13T19:38:34;2.2;1.4;0.4
57373;PMS7003;43964;53.890;25.340;2023-03-13T19:43:34;0.8;0.6;0.4
57373;PMS7003;43964;53.890;25.340;2023-03-13T19:49:20;1.2;0.8;0.6
57373;PMS7003;43964;53.890;25.340;2023-03-13T19:53:56;2;1.3;0.8
57373;PMS7003;43964;53.890;25.340;2023-03-13T19:58:57;1.8;1;0.6
57373;PMS7003;43964;53.890;25.340;2023-03-13T20:03:48;1.4;1;0.4
57373;PMS7003;43964;53.890;25.340;2023-03-13T20:09:20;2.2;1.2;0.8
57373;PMS7003;43964;53.890;25.340;2023-03-13T20:14:10;1.8;1;0.6
57373;PMS7003;43964;53.890;25.340;2023-03-13T20:18:57;1.6;0.8;0.6
57373;PMS7003;43964;53.890;25.340;2023-03-13T20:23:50;1.8;1.4;0.6
57373;PMS7003;43964;53.890;25.340;2023-03-13T20:29:04;2;1.2;0.4
57373;PMS7003;43964;53.890;25.340;2023-03-13T20:33:35;1.2;1;0.4
57373;PMS7003;43964;53.890;25.340;2023-03-13T20:39:20;0.8;0.6;0.2
57373;PMS7003;43964;53.890;25.340;2023-03-13T20:43:35;1.6;1.2;0.6
57373;PMS7003;43964;53.890;25.340;2023-03-13T20:48:56;2;1.4;0.2
57373;PMS7003;43964;53.890;25.340;2023-03-13T20:54:20;1.5;1.5;0.5
57373;PMS7003;43964;53.890;25.340;2023-03-13T20:59:06;1;1;0.6
57373;PMS7003;43964;53.890;25.340;2023-03-13T21:03:35;1.4;1.2;0.6
57373;PMS7003;43964;53.890;25.340;2023-03-13T21:09:20;1.6;1.2;0.6
57373;PMS7003;43964;53.890;25.340;2023-03-13T21:13:34;2;1;0.8
57373;PMS7003;43964;53.890;25.340;2023-03-13T21:18:50;1.4;1;0.4
57373;PMS7003;43964;53.890;25.340;2023-03-13T21:24:02;2.3;1.5;0.3
57373;PMS7003;43964;53.890;25.340;2023-03-13T21:29:20;1;0.8;0.2
57373;PMS7003;43964;53.890;25.340;2023-03-13T21:33:50;1.6;0.6;0.2
57373;PMS7003;43964;53.890;25.340;2023-03-13T21:39:04;1.4;0.6;0.4
57373;PMS7003;43964;53.890;25.340;2023-03-13T21:44:12;1;1;0.3
57373;PMS7003;43964;53.890;25.340;2023-03-13T21:49:20;1.8;0.8;0.4
57373;PMS7003;43964;53.890;25.340;2023-03-13T21:53:56;0.8;0.8;0.2
57373;PMS7003;43964;53.890;25.340;2023-03-13T21:58:46;1.8;1;0.6
57373;PMS7003;43964;53.890;25.340;2023-03-13T22:04:20;1.8;0.8;0.4
57373;PMS7003;43964;53.890;25.340;2023-03-13T22:09:21;1.2;1;0.6
57373;PMS7003;43964;53.890;25.340;2023-03-13T22:13:34;1.6;1.2;0.6
57373;PMS7003;43964;53.890;25.340;2023-03-13T22:19:18;2;1.6;1.2
57373;PMS7003;43964;53.890;25.340;2023-03-13T22:23:56;2.4;2;1
57373;PMS7003;43964;53.890;25.340;2023-03-13T22:28:46;1.8;1.4;0.6
57373;PMS7003;43964;53.890;25.340;2023-03-13T22:33:50;2;1.5;0.8
57373;PMS7003;43964;53.890;25.340;2023-03-13T22:39:18;2;1.6;0.8
57373;PMS7003;43964;53.890;25.340;2023-03-13T22:43:46;1.8;1.4;1
57373;PMS7003;43964;53.890;25.340;2023-03-13T22:48:56;2;1.4;0.8
57373;PMS7003;43964;53.890;25.340;2023-03-13T22:54:16;2;1.6;0.6
57373;PMS7003;43964;53.890;25.340;2023-03-13T22:58:44;0.5;0.5;0.3
57373;PMS7003;43964;53.890;25.340;2023-03-13T23:03:44;2.8;1.8;1.3
57373;PMS7003;43964;53.890;25.340;2023-03-13T23:08:45;1.8;1.2;0.6
57373;PMS7003;43964;53.890;25.340;2023-03-13T23:14:16;2.4;1.6;1
57373;PMS7003;43964;53.890;25.340;2023-03-13T23:19:10;2;1.6;1
57373;PMS7003;43964;53.890;25.340;2023-03-13T23:23:56;2;2;0.6
57373;PMS7003;43964;53.890;25.340;2023-03-13T23:28:48;1.6;1.2;0.2
57373;PMS7003;43964;53.890;25.340;2023-03-13T23:34:00;1.8;1.8;0.8
57373;PMS7003;43964;53.890;25.340;2023-03-13T23:38:51;1;0.8;0.3
57373;PMS7003;43964;53.890;25.340;2023-03-13T23:43:35;1.5;0.5;0
57373;PMS7003;43964;53.890;25.340;2023-03-13T23:48:44;0.6;0.4;0
57373;PMS7003;43964;53.890;25.340;2023-03-13T23:53:35;0.8;0.6;0.2
57373;PMS7003;43964;53.890;25.340;2023-03-13T23:59:16;1.4;1.4;0.8
